sensor_id;sensor_type;location;lat;lon;timestamp;pressure;altitude;pressure_sealevel;temperature;humidity
25944;BME280;13742;49.306;8.636;2023-04-25T00:00:18;99902.64;;;10.40;85.78
25944;BME280;13742;49.306;8.636;2023-04-25T00:01:18;99901.25;;;10.39;85.52
25944;BME280;13742;49.306;8.636;2023-04-25T00:02:19;99900.81;;;10.38;85.45
25944;BME280;13742;49.306;8.636;2023-04-25T00:03:19;99897.13;;;10.35;85.51
25944;BME280;13742;49.306;8.636;2023-04-25T00:04:19;99896.75;;;10.36;85.24
25944;BME280;13742;49.306;8.636;2023-04-25T00:05:19;99893.85;;;10.36;85.30
25944;BME280;13742;49.306;8.636;2023-04-25T00:06:18;99894.30;;;10.36;85.32
25944;BME280;13742;49.306;8.636;2023-04-25T00:07:19;99895.41;;;10.37;85.78
25944;BME280;13742;49.306;8.636;2023-04-25T00:08:18;99892.75;;;10.36;85.61
25944;BME280;13742;49.306;8.636;2023-04-25T00:09:18;99891.70;;;10.37;85.54
25944;BME280;13742;49.306;8.636;2023-04-25T00:10:19;99895.30;;;10.37;85.87
25944;BME280;13742;49.306;8.636;2023-04-25T00:11:18;99895.95;;;10.37;86.04
25944;BME280;13742;49.306;8.636;2023-04-25T00:12:19;99896.97;;;10.38;86.10
25944;BME280;13742;49.306;8.636;2023-04-25T00:13:19;99897.16;;;10.37;85.76
25944;BME280;13742;49.306;8.636;2023-04-25T00:14:18;99898.47;;;10.37;85.72
25944;BME280;13742;49.306;8.636;2023-04-25T00:15:18;99900.45;;;10.37;85.62
25944;BME280;13742;49.306;8.636;2023-04-25T00:16:19;99902.16;;;10.36;85.95
25944;BME280;13742;49.306;8.636;2023-04-25T00:17:19;99902.27;;;10.36;86.18
25944;BME280;13742;49.306;8.636;2023-04-25T00:18:19;99904.13;;;10.35;87.33
25944;BME280;13742;49.306;8.636;2023-04-25T00:19:18;99905.25;;;10.28;87.71
25944;BME280;13742;49.306;8.636;2023-04-25T00:20:18;99903.77;;;10.28;87.70
25944;BME280;13742;49.306;8.636;2023-04-25T00:21:19;99905.78;;;10.27;88.56
25944;BME280;13742;49.306;8.636;2023-04-25T00:22:18;99904.41;;;10.27;87.94
25944;BME280;13742;49.306;8.636;2023-04-25T00:23:18;99903.58;;;10.27;87.68
25944;BME280;13742;49.306;8.636;2023-04-25T00:24:19;99906.19;;;10.28;88.11
25944;BME280;13742;49.306;8.636;2023-04-25T00:25:19;99901.64;;;10.28;87.92
25944;BME280;13742;49.306;8.636;2023-04-25T00:26:18;99905.27;;;10.28;87.59
25944;BME280;13742;49.306;8.636;2023-04-25T00:27:18;99903.93;;;10.28;87.13
25944;BME280;13742;49.306;8.636;2023-04-25T00:28:18;99902.28;;;10.28;87.23
25944;BME280;13742;49.306;8.636;2023-04-25T00:29:18;99898.01;;;10.28;87.15
25944;BME280;13742;49.306;8.636;2023-04-25T00:30:18;99899.98;;;10.28;87.07
25944;BME280;13742;49.306;8.636;2023-04-25T00:31:18;99893.95;;;10.27;86.89
25944;BME280;13742;49.306;8.636;2023-04-25T00:32:18;99892.59;;;10.18;86.88
25944;BME280;13742;49.306;8.636;2023-04-25T00:33:18;99893.36;;;10.18;86.82
25944;BME280;13742;49.306;8.636;2023-04-25T00:34:18;99889.91;;;10.19;86.68
25944;BME280;13742;49.306;8.636;2023-04-25T00:35:18;99889.57;;;10.12;87.33
25944;BME280;13742;49.306;8.636;2023-04-25T00:36:18;99888.11;;;10.10;86.72
25944;BME280;13742;49.306;8.636;2023-04-25T00:37:19;99885.51;;;10.09;86.80
25944;BME280;13742;49.306;8.636;2023-04-25T00:38:18;99886.94;;;10.09;86.96
25944;BME280;13742;49.306;8.636;2023-04-25T00:39:18;99882.39;;;10.10;86.81
25944;BME280;13742;49.306;8.636;2023-04-25T00:40:18;99883.71;;;10.10;88.12
25944;BME280;13742;49.306;8.636;2023-04-25T00:41:18;99883.58;;;10.09;88.15
25944;BME280;13742;49.306;8.636;2023-04-25T00:42:19;99883.77;;;10.10;88.09
25944;BME280;13742;49.306;8.636;2023-04-25T00:43:19;99886.86;;;10.11;87.68
25944;BME280;13742;49.306;8.636;2023-04-25T00:44:18;99889.36;;;10.12;87.81
25944;BME280;13742;49.306;8.636;2023-04-25T00:45:19;99893.44;;;10.13;87.29
25944;BME280;13742;49.306;8.636;2023-04-25T00:46:18;99890.14;;;10.13;87.17
25944;BME280;13742;49.306;8.636;2023-04-25T00:47:18;99890.00;;;10.14;87.32
25944;BME280;13742;49.306;8.636;2023-04-25T00:48:20;99887.89;;;10.13;87.16
25944;BME280;13742;49.306;8.636;2023-04-25T00:49:18;99887.13;;;10.14;87.17
25944;BME280;13742;49.306;8.636;2023-04-25T00:50:18;99890.21;;;10.14;87.11
25944;BME280;13742;49.306;8.636;2023-04-25T00:51:19;99886.36;;;10.14;87.11
25944;BME280;13742;49.306;8.636;2023-04-25T00:52:19;99886.91;;;10.14;86.83
25944;BME280;13742;49.306;8.636;2023-04-25T00:53:19;99886.20;;;10.14;86.81
25944;BME280;13742;49.306;8.636;2023-04-25T00:54:18;99886.78;;;10.13;86.54
25944;BME280;13742;49.306;8.636;2023-04-25T00:55:18;99882.77;;;10.13;86.59
25944;BME280;13742;49.306;8.636;2023-04-25T00:56:19;99885.30;;;10.13;86.75
25944;BME280;13742;49.306;8.636;2023-04-25T00:57:18;99882.22;;;10.13;86.93
25944;BME280;13742;49.306;8.636;2023-04-25T00:58:19;99883.45;;;10.14;86.88
25944;BME280;13742;49.306;8.636;2023-04-25T00:59:19;99880.09;;;10.14;87.02
25944;BME280;13742;49.306;8.636;2023-04-25T01:00:19;99879.33;;;10.14;86.99
25944;BME280;13742;49.306;8.636;2023-04-25T01:01:19;99874.55;;;10.14;87.53
25944;BME280;13742;49.306;8.636;2023-04-25T01:02:19;99872.23;;;10.14;87.04
25944;BME280;13742;49.306;8.636;2023-04-25T01:03:21;99876.96;;;10.14;86.80
25944;BME280;13742;49.306;8.636;2023-04-25T01:04:18;99874.14;;;10.13;86.76
25944;BME280;13742;49.306;8.636;2023-04-25T01:05:18;99872.38;;;10.13;86.85
25944;BME280;13742;49.306;8.636;2023-04-25T01:06:18;99872.25;;;10.12;86.71
25944;BME280;13742;49.306;8.636;2023-04-25T01:07:18;99877.83;;;10.13;86.45
25944;BME280;13742;49.306;8.636;2023-04-25T01:08:18;99878.85;;;10.12;86.14
25944;BME280;13742;49.306;8.636;2023-04-25T01:09:19;99881.36;;;10.11;85.99
25944;BME280;13742;49.306;8.636;2023-04-25T01:10:18;99881.16;;;10.12;86.43
25944;BME280;13742;49.306;8.636;2023-04-25T01:11:18;99878.54;;;10.10;86.21
25944;BME280;13742;49.306;8.636;2023-04-25T01:12:18;99875.42;;;10.11;86.13
25944;BME280;13742;49.306;8.636;2023-04-25T01:13:18;99870.33;;;10.10;86.33
25944;BME280;13742;49.306;8.636;2023-04-25T01:14:18;99867.71;;;10.10;86.19
25944;BME280;13742;49.306;8.636;2023-04-25T01:15:18;99867.60;;;10.10;86.10
25944;BME280;13742;49.306;8.636;2023-04-25T01:16:18;99867.77;;;10.11;86.20
25944;BME280;13742;49.306;8.636;2023-04-25T01:17:19;99865.07;;;10.10;86.22
25944;BME280;13742;49.306;8.636;2023-04-25T01:18:19;99865.60;;;10.09;85.84
25944;BME280;13742;49.306;8.636;2023-04-25T01:19:18;99865.33;;;10.09;85.79
25944;BME280;13742;49.306;8.636;2023-04-25T01:20:20;99865.33;;;10.09;85.74
25944;BME280;13742;49.306;8.636;2023-04-25T01:21:18;99867.23;;;10.08;85.66
25944;BME280;13742;49.306;8.636;2023-04-25T01:22:18;99867.67;;;10.08;85.46
25944;BME280;13742;49.306;8.636;2023-04-25T01:23:22;99867.13;;;10.09;85.47
25944;BME280;13742;49.306;8.636;2023-04-25T01:24:18;99867.27;;;10.07;85.39
25944;BME280;13742;49.306;8.636;2023-04-25T01:25:19;99866.13;;;10.09;86.02
25944;BME280;13742;49.306;8.636;2023-04-25T01:26:21;99866.30;;;10.08;85.69
25944;BME280;13742;49.306;8.636;2023-04-25T01:27:18;99864.92;;;10.08;86.19
25944;BME280;13742;49.306;8.636;2023-04-25T01:28:18;99864.21;;;10.08;86.02
25944;BME280;13742;49.306;8.636;2023-04-25T01:29:19;99863.14;;;10.07;85.90
25944;BME280;13742;49.306;8.636;2023-04-25T01:30:18;99861.46;;;10.08;86.59
25944;BME280;13742;49.306;8.636;2023-04-25T01:31:18;99858.59;;;10.07;86.09
25944;BME280;13742;49.306;8.636;2023-04-25T01:32:18;99858.75;;;10.07;85.85
25944;BME280;13742;49.306;8.636;2023-04-25T01:33:19;99859.94;;;10.06;85.77
25944;BME280;13742;49.306;8.636;2023-04-25T01:34:18;99857.39;;;10.05;85.60
25944;BME280;13742;49.306;8.636;2023-04-25T01:35:18;99858.33;;;10.05;85.59
25944;BME280;13742;49.306;8.636;2023-04-25T01:36:18;99860.31;;;10.05;85.87
25944;BME280;13742;49.306;8.636;2023-04-25T01:37:18;99856.91;;;10.02;85.42
25944;BME280;13742;49.306;8.636;2023-04-25T01:38:18;99860.23;;;10.02;85.34
25944;BME280;13742;49.306;8.636;2023-04-25T01:39:18;99859.45;;;10.01;85.53
25944;BME280;13742;49.306;8.636;2023-04-25T01:40:18;99861.20;;;10.00;85.38
25944;BME280;13742;49.306;8.636;2023-04-25T01:41:19;99859.89;;;10.00;85.53
25944;BME280;13742;49.306;8.636;2023-04-25T01:42:19;99863.94;;;10.00;85.48
25944;BME280;13742;49.306;8.636;2023-04-25T01:43:18;99864.05;;;10.00;85.47
25944;BME280;13742;49.306;8.636;2023-04-25T01:44:18;99866.64;;;9.99;85.47
25944;BME280;13742;49.306;8.636;2023-04-25T01:45:18;99868.53;;;9.99;85.23
25944;BME280;13742;49.306;8.636;2023-04-25T01:46:18;99864.66;;;9.99;85.23
25944;BME280;13742;49.306;8.636;2023-04-25T01:47:18;99866.03;;;9.99;85.26
25944;BME280;13742;49.306;8.636;2023-04-25T01:48:18;99867.25;;;9.98;85.22
25944;BME280;13742;49.306;8.636;2023-04-25T01:49:19;99866.84;;;9.98;85.20
25944;BME280;13742;49.306;8.636;2023-04-25T01:50:19;99867.47;;;9.96;85.29
25944;BME280;13742;49.306;8.636;2023-04-25T01:51:18;99868.95;;;9.96;85.50
25944;BME280;13742;49.306;8.636;2023-04-25T01:52:18;99866.20;;;9.96;85.36
25944;BME280;13742;49.306;8.636;2023-04-25T01:53:18;99863.00;;;9.95;85.28
25944;BME280;13742;49.306;8.636;2023-04-25T01:54:18;99866.83;;;9.94;85.43
25944;BME280;13742;49.306;8.636;2023-04-25T01:55:18;99868.30;;;9.93;85.89
25944;BME280;13742;49.306;8.636;2023-04-25T01:56:18;99867.80;;;9.93;86.18
25944;BME280;13742;49.306;8.636;2023-04-25T01:57:18;99867.06;;;9.92;85.95
25944;BME280;13742;49.306;8.636;2023-04-25T01:58:18;99867.31;;;9.91;86.25
25944;BME280;13742;49.306;8.636;2023-04-25T01:59:19;99868.64;;;9.91;86.10
25944;BME280;13742;49.306;8.636;2023-04-25T02:00:18;99865.82;;;9.90;87.17
25944;BME280;13742;49.306;8.636;2023-04-25T02:01:18;99867.25;;;9.87;86.48
25944;BME280;13742;49.306;8.636;2023-04-25T02:02:19;99864.55;;;9.84;87.11
25944;BME280;13742;49.306;8.636;2023-04-25T02:03:18;99863.66;;;9.83;86.97
25944;BME280;13742;49.306;8.636;2023-04-25T02:04:18;99859.86;;;9.83;87.10
25944;BME280;13742;49.306;8.636;2023-04-25T02:05:19;99861.31;;;9.84;87.06
25944;BME280;13742;49.306;8.636;2023-04-25T02:06:18;99856.67;;;9.83;87.61
25944;BME280;13742;49.306;8.636;2023-04-25T02:07:18;99863.89;;;9.84;87.71
25944;BME280;13742;49.306;8.636;2023-04-25T02:08:18;99863.27;;;9.83;88.11
25944;BME280;13742;49.306;8.636;2023-04-25T02:09:18;99863.66;;;9.83;88.12
25944;BME280;13742;49.306;8.636;2023-04-25T02:10:18;99869.92;;;9.83;87.79
25944;BME280;13742;49.306;8.636;2023-04-25T02:11:18;99868.35;;;9.81;87.84
25944;BME280;13742;49.306;8.636;2023-04-25T02:12:18;99870.20;;;9.80;87.71
25944;BME280;13742;49.306;8.636;2023-04-25T02:13:18;99870.60;;;9.79;87.95
25944;BME280;13742;49.306;8.636;2023-04-25T02:14:18;99869.39;;;9.79;88.84
25944;BME280;13742;49.306;8.636;2023-04-25T02:15:18;99868.00;;;9.78;88.01
25944;BME280;13742;49.306;8.636;2023-04-25T02:16:18;99869.92;;;9.77;87.83
25944;BME280;13742;49.306;8.636;2023-04-25T02:17:18;99866.28;;;9.76;88.20
25944;BME280;13742;49.306;8.636;2023-04-25T02:18:20;99862.41;;;9.76;88.64
25944;BME280;13742;49.306;8.636;2023-04-25T02:19:18;99864.94;;;9.76;88.67
25944;BME280;13742;49.306;8.636;2023-04-25T02:20:20;99862.91;;;9.75;88.65
25944;BME280;13742;49.306;8.636;2023-04-25T02:21:19;99867.56;;;9.74;88.67
25944;BME280;13742;49.306;8.636;2023-04-25T02:22:18;99864.30;;;9.74;88.93
25944;BME280;13742;49.306;8.636;2023-04-25T02:23:19;99866.75;;;9.72;88.77
25944;BME280;13742;49.306;8.636;2023-04-25T02:24:18;99864.79;;;9.71;88.71
25944;BME280;13742;49.306;8.636;2023-04-25T02:25:19;99866.77;;;9.71;89.01
25944;BME280;13742;49.306;8.636;2023-04-25T02:26:18;99866.03;;;9.69;89.11
25944;BME280;13742;49.306;8.636;2023-04-25T02:27:18;99863.09;;;9.68;89.17
25944;BME280;13742;49.306;8.636;2023-04-25T02:28:18;99859.98;;;9.67;89.29
25944;BME280;13742;49.306;8.636;2023-04-25T02:29:18;99860.23;;;9.65;89.32
25944;BME280;13742;49.306;8.636;2023-04-25T02:30:18;99863.59;;;9.65;89.80
25944;BME280;13742;49.306;8.636;2023-04-25T02:31:18;99862.88;;;9.63;89.54
25944;BME280;13742;49.306;8.636;2023-04-25T02:32:18;99862.30;;;9.61;89.57
25944;BME280;13742;49.306;8.636;2023-04-25T02:33:18;99864.75;;;9.60;89.85
25944;BME280;13742;49.306;8.636;2023-04-25T02:34:18;99862.34;;;9.61;89.93
25944;BME280;13742;49.306;8.636;2023-04-25T02:35:18;99864.98;;;9.61;90.15
25944;BME280;13742;49.306;8.636;2023-04-25T02:36:18;99865.04;;;9.61;89.86
25944;BME280;13742;49.306;8.636;2023-04-25T02:37:18;99865.75;;;9.61;90.28
25944;BME280;13742;49.306;8.636;2023-04-25T02:38:18;99865.55;;;9.59;90.58
25944;BME280;13742;49.306;8.636;2023-04-25T02:39:18;99864.09;;;9.60;90.56
25944;BME280;13742;49.306;8.636;2023-04-25T02:40:18;99863.84;;;9.59;90.59
25944;BME280;13742;49.306;8.636;2023-04-25T02:41:18;99863.91;;;9.59;90.59
25944;BME280;13742;49.306;8.636;2023-04-25T02:42:18;99861.59;;;9.59;90.94
25944;BME280;13742;49.306;8.636;2023-04-25T02:43:18;99860.22;;;9.59;92.06
25944;BME280;13742;49.306;8.636;2023-04-25T02:44:18;99864.84;;;9.59;92.66
25944;BME280;13742;49.306;8.636;2023-04-25T02:45:18;99859.74;;;9.57;92.37
25944;BME280;13742;49.306;8.636;2023-04-25T02:46:18;99858.81;;;9.57;91.49
25944;BME280;13742;49.306;8.636;2023-04-25T02:47:18;99858.42;;;9.57;91.78
25944;BME280;13742;49.306;8.636;2023-04-25T02:48:18;99860.27;;;9.56;92.08
25944;BME280;13742;49.306;8.636;2023-04-25T02:49:18;99860.84;;;9.51;91.66
25944;BME280;13742;49.306;8.636;2023-04-25T02:50:18;99856.73;;;9.47;91.76
25944;BME280;13742;49.306;8.636;2023-04-25T02:51:18;99860.27;;;9.43;91.94
25944;BME280;13742;49.306;8.636;2023-04-25T02:52:18;99860.42;;;9.39;92.55
25944;BME280;13742;49.306;8.636;2023-04-25T02:53:18;99856.20;;;9.37;92.37
25944;BME280;13742;49.306;8.636;2023-04-25T02:54:18;99857.05;;;9.38;93.01
25944;BME280;13742;49.306;8.636;2023-04-25T02:55:18;99858.13;;;9.37;92.65
25944;BME280;13742;49.306;8.636;2023-04-25T02:56:18;99856.48;;;9.37;92.47
25944;BME280;13742;49.306;8.636;2023-04-25T02:57:18;99859.20;;;9.36;92.93
25944;BME280;13742;49.306;8.636;2023-04-25T02:58:18;99858.27;;;9.36;93.09
25944;BME280;13742;49.306;8.636;2023-04-25T02:59:18;99859.75;;;9.33;93.56
25944;BME280;13742;49.306;8.636;2023-04-25T03:00:18;99853.47;;;9.32;93.05
25944;BME280;13742;49.306;8.636;2023-04-25T03:01:18;99853.42;;;9.28;94.24
25944;BME280;13742;49.306;8.636;2023-04-25T03:02:18;99855.00;;;9.29;94.88
25944;BME280;13742;49.306;8.636;2023-04-25T03:03:21;99857.85;;;9.30;94.35
25944;BME280;13742;49.306;8.636;2023-04-25T03:04:19;99858.95;;;9.29;94.87
25944;BME280;13742;49.306;8.636;2023-04-25T03:05:19;99859.13;;;9.27;95.18
25944;BME280;13742;49.306;8.636;2023-04-25T03:06:18;99861.08;;;9.20;95.74
25944;BME280;13742;49.306;8.636;2023-04-25T03:07:18;99858.66;;;9.24;95.92
25944;BME280;13742;49.306;8.636;2023-04-25T03:08:18;99859.34;;;9.24;95.22
25944;BME280;13742;49.306;8.636;2023-04-25T03:09:19;99859.48;;;9.23;96.91
25944;BME280;13742;49.306;8.636;2023-04-25T03:10:18;99859.91;;;9.25;96.16
25944;BME280;13742;49.306;8.636;2023-04-25T03:11:20;99860.31;;;9.26;97.13
25944;BME280;13742;49.306;8.636;2023-04-25T03:12:18;99857.33;;;9.25;96.53
25944;BME280;13742;49.306;8.636;2023-04-25T03:13:18;99852.52;;;9.27;96.96
25944;BME280;13742;49.306;8.636;2023-04-25T03:14:18;99851.02;;;9.28;96.94
25944;BME280;13742;49.306;8.636;2023-04-25T03:15:18;99852.82;;;9.30;96.93
25944;BME280;13742;49.306;8.636;2023-04-25T03:16:18;99851.09;;;9.29;97.74
25944;BME280;13742;49.306;8.636;2023-04-25T03:17:18;99848.83;;;9.28;98.23
25944;BME280;13742;49.306;8.636;2023-04-25T03:18:18;99851.59;;;9.30;97.55
25944;BME280;13742;49.306;8.636;2023-04-25T03:19:18;99849.13;;;9.29;96.47
25944;BME280;13742;49.306;8.636;2023-04-25T03:20:18;99849.45;;;9.26;96.46
25944;BME280;13742;49.306;8.636;2023-04-25T03:21:18;99849.63;;;9.24;96.48
25944;BME280;13742;49.306;8.636;2023-04-25T03:22:18;99852.97;;;9.24;96.45
25944;BME280;13742;49.306;8.636;2023-04-25T03:23:18;99849.81;;;9.25;96.25
25944;BME280;13742;49.306;8.636;2023-04-25T03:24:18;99850.41;;;9.25;96.35
25944;BME280;13742;49.306;8.636;2023-04-25T03:25:18;99844.95;;;9.25;96.64
25944;BME280;13742;49.306;8.636;2023-04-25T03:26:18;99843.98;;;9.25;96.01
25944;BME280;13742;49.306;8.636;2023-04-25T03:27:18;99846.59;;;9.27;95.90
25944;BME280;13742;49.306;8.636;2023-04-25T03:28:18;99845.83;;;9.29;95.82
25944;BME280;13742;49.306;8.636;2023-04-25T03:29:18;99843.67;;;9.31;97.22
25944;BME280;13742;49.306;8.636;2023-04-25T03:30:18;99841.42;;;9.31;96.46
25944;BME280;13742;49.306;8.636;2023-04-25T03:31:18;99846.75;;;9.34;97.20
25944;BME280;13742;49.306;8.636;2023-04-25T03:32:18;99847.88;;;9.35;97.44
25944;BME280;13742;49.306;8.636;2023-04-25T03:33:18;99844.54;;;9.36;96.64
25944;BME280;13742;49.306;8.636;2023-04-25T03:34:18;99846.41;;;9.36;96.52
25944;BME280;13742;49.306;8.636;2023-04-25T03:35:18;99845.88;;;9.37;96.06
25944;BME280;13742;49.306;8.636;2023-04-25T03:36:18;99845.56;;;9.38;96.64
25944;BME280;13742;49.306;8.636;2023-04-25T03:37:18;99844.20;;;9.40;97.48
25944;BME280;13742;49.306;8.636;2023-04-25T03:38:18;99845.02;;;9.40;97.70
25944;BME280;13742;49.306;8.636;2023-04-25T03:39:18;99844.91;;;9.43;98.68
25944;BME280;13742;49.306;8.636;2023-04-25T03:40:18;99846.01;;;9.41;97.73
25944;BME280;13742;49.306;8.636;2023-04-25T03:41:18;99847.90;;;9.42;96.67
25944;BME280;13742;49.306;8.636;2023-04-25T03:42:19;99845.91;;;9.43;97.27
25944;BME280;13742;49.306;8.636;2023-04-25T03:43:18;99847.22;;;9.43;96.41
25944;BME280;13742;49.306;8.636;2023-04-25T03:44:18;99847.55;;;9.44;97.02
25944;BME280;13742;49.306;8.636;2023-04-25T03:45:18;99848.43;;;9.44;97.92
25944;BME280;13742;49.306;8.636;2023-04-25T03:46:18;99844.29;;;9.43;96.99
25944;BME280;13742;49.306;8.636;2023-04-25T03:47:18;99845.39;;;9.43;97.38
25944;BME280;13742;49.306;8.636;2023-04-25T03:48:21;99847.97;;;9.43;96.70
25944;BME280;13742;49.306;8.636;2023-04-25T03:49:18;99844.26;;;9.43;96.62
25944;BME280;13742;49.306;8.636;2023-04-25T03:50:18;99845.88;;;9.43;96.72
25944;BME280;13742;49.306;8.636;2023-04-25T03:51:18;99845.55;;;9.43;96.06
25944;BME280;13742;49.306;8.636;2023-04-25T03:52:18;99848.16;;;9.43;96.14
25944;BME280;13742;49.306;8.636;2023-04-25T03:53:18;99848.10;;;9.44;95.95
25944;BME280;13742;49.306;8.636;2023-04-25T03:54:18;99846.25;;;9.44;97.27
25944;BME280;13742;49.306;8.636;2023-04-25T03:55:18;99847.53;;;9.46;96.90
25944;BME280;13742;49.306;8.636;2023-04-25T03:56:18;99848.11;;;9.46;96.76
25944;BME280;13742;49.306;8.636;2023-04-25T03:57:18;99850.16;;;9.47;97.50
25944;BME280;13742;49.306;8.636;2023-04-25T03:58:18;99850.54;;;9.48;97.14
25944;BME280;13742;49.306;8.636;2023-04-25T03:59:18;99853.69;;;9.48;97.22
25944;BME280;13742;49.306;8.636;2023-04-25T04:00:18;99852.25;;;9.47;97.10
25944;BME280;13742;49.306;8.636;2023-04-25T04:01:18;99847.64;;;9.45;96.84
25944;BME280;13742;49.306;8.636;2023-04-25T04:02:18;99849.36;;;9.44;96.43
25944;BME280;13742;49.306;8.636;2023-04-25T04:03:18;99850.95;;;9.43;96.49
25944;BME280;13742;49.306;8.636;2023-04-25T04:04:18;99850.09;;;9.42;96.61
25944;BME280;13742;49.306;8.636;2023-04-25T04:05:18;99851.28;;;9.41;96.54
25944;BME280;13742;49.306;8.636;2023-04-25T04:06:20;99854.41;;;9.41;96.27
25944;BME280;13742;49.306;8.636;2023-04-25T04:07:18;99852.36;;;9.40;96.42
25944;BME280;13742;49.306;8.636;2023-04-25T04:08:18;99852.64;;;9.40;96.27
25944;BME280;13742;49.306;8.636;2023-04-25T04:09:19;99853.97;;;9.38;95.75
25944;BME280;13742;49.306;8.636;2023-04-25T04:10:18;99851.00;;;9.38;95.95
25944;BME280;13742;49.306;8.636;2023-04-25T04:11:18;99850.69;;;9.36;95.93
25944;BME280;13742;49.306;8.636;2023-04-25T04:12:18;99850.36;;;9.36;95.91
25944;BME280;13742;49.306;8.636;2023-04-25T04:13:18;99847.67;;;9.36;96.37
25944;BME280;13742;49.306;8.636;2023-04-25T04:14:18;99852.03;;;9.37;96.26
25944;BME280;13742;49.306;8.636;2023-04-25T04:15:18;99851.15;;;9.37;96.55
25944;BME280;13742;49.306;8.636;2023-04-25T04:16:18;99850.93;;;9.37;96.64
25944;BME280;13742;49.306;8.636;2023-04-25T04:17:18;99851.75;;;9.37;96.51
25944;BME280;13742;49.306;8.636;2023-04-25T04:18:18;99854.06;;;9.37;96.82
25944;BME280;13742;49.306;8.636;2023-04-25T04:19:18;99853.23;;;9.37;96.06
25944;BME280;13742;49.306;8.636;2023-04-25T04:20:18;99856.88;;;9.38;96.76
25944;BME280;13742;49.306;8.636;2023-04-25T04:21:18;99857.78;;;9.39;97.86
25944;BME280;13742;49.306;8.636;2023-04-25T04:22:18;99858.77;;;9.39;97.62
25944;BME280;13742;49.306;8.636;2023-04-25T04:23:19;99856.83;;;9.38;96.75
25944;BME280;13742;49.306;8.636;2023-04-25T04:24:18;99861.60;;;9.38;96.41
25944;BME280;13742;49.306;8.636;2023-04-25T04:25:19;99861.66;;;9.38;96.65
25944;BME280;13742;49.306;8.636;2023-04-25T04:26:18;99860.31;;;9.39;97.23
25944;BME280;13742;49.306;8.636;2023-04-25T04:27:19;99865.58;;;9.39;96.69
25944;BME280;13742;49.306;8.636;2023-04-25T04:28:18;99860.84;;;9.40;97.91
25944;BME280;13742;49.306;8.636;2023-04-25T04:29:21;99861.28;;;9.41;97.71
25944;BME280;13742;49.306;8.636;2023-04-25T04:30:18;99858.17;;;9.42;97.56
25944;BME280;13742;49.306;8.636;2023-04-25T04:31:22;99860.20;;;9.42;97.61
25944;BME280;13742;49.306;8.636;2023-04-25T04:32:18;99861.95;;;9.42;97.09
25944;BME280;13742;49.306;8.636;2023-04-25T04:33:19;99860.53;;;9.42;96.78
25944;BME280;13742;49.306;8.636;2023-04-25T04:34:18;99861.81;;;9.43;98.10
25944;BME280;13742;49.306;8.636;2023-04-25T04:35:20;99859.50;;;9.42;99.82
25944;BME280;13742;49.306;8.636;2023-04-25T04:36:22;99864.19;;;9.41;98.26
25944;BME280;13742;49.306;8.636;2023-04-25T04:37:18;99861.88;;;9.41;98.18
25944;BME280;13742;49.306;8.636;2023-04-25T04:38:19;99862.33;;;9.40;97.93
25944;BME280;13742;49.306;8.636;2023-04-25T04:39:18;99861.02;;;9.39;97.72
25944;BME280;13742;49.306;8.636;2023-04-25T04:40:18;99866.16;;;9.38;97.21
25944;BME280;13742;49.306;8.636;2023-04-25T04:41:19;99865.48;;;9.37;97.01
25944;BME280;13742;49.306;8.636;2023-04-25T04:42:18;99868.83;;;9.37;96.98
25944;BME280;13742;49.306;8.636;2023-04-25T04:43:18;99868.76;;;9.36;97.42
25944;BME280;13742;49.306;8.636;2023-04-25T04:44:18;99868.92;;;9.36;97.06
25944;BME280;13742;49.306;8.636;2023-04-25T04:45:18;99869.78;;;9.35;96.83
25944;BME280;13742;49.306;8.636;2023-04-25T04:46:18;99872.91;;;9.35;96.52
25944;BME280;13742;49.306;8.636;2023-04-25T04:47:20;99873.81;;;9.36;97.18
25944;BME280;13742;49.306;8.636;2023-04-25T04:48:18;99871.76;;;9.35;97.10
25944;BME280;13742;49.306;8.636;2023-04-25T04:49:19;99874.50;;;9.35;96.99
25944;BME280;13742;49.306;8.636;2023-04-25T04:50:19;99872.77;;;9.36;97.04
25944;BME280;13742;49.306;8.636;2023-04-25T04:51:18;99875.08;;;9.36;97.33
25944;BME280;13742;49.306;8.636;2023-04-25T04:52:18;99878.06;;;9.37;97.60
25944;BME280;13742;49.306;8.636;2023-04-25T04:53:18;99881.08;;;9.37;97.52
25944;BME280;13742;49.306;8.636;2023-04-25T04:54:18;99880.92;;;9.37;97.95
25944;BME280;13742;49.306;8.636;2023-04-25T04:55:18;99887.45;;;9.40;98.35
25944;BME280;13742;49.306;8.636;2023-04-25T04:56:20;99886.39;;;9.39;97.63
25944;BME280;13742;49.306;8.636;2023-04-25T04:57:18;99886.55;;;9.39;97.16
25944;BME280;13742;49.306;8.636;2023-04-25T04:58:18;99889.80;;;9.39;97.21
25944;BME280;13742;49.306;8.636;2023-04-25T04:59:18;99887.41;;;9.38;97.34
25944;BME280;13742;49.306;8.636;2023-04-25T05:00:18;99887.08;;;9.40;97.17
25944;BME280;13742;49.306;8.636;2023-04-25T05:01:18;99887.25;;;9.38;96.65
25944;BME280;13742;49.306;8.636;2023-04-25T05:02:18;99888.89;;;9.40;97.03
25944;BME280;13742;49.306;8.636;2023-04-25T05:03:18;99887.75;;;9.38;96.59
25944;BME280;13742;49.306;8.636;2023-04-25T05:04:18;99884.84;;;9.38;96.19
25944;BME280;13742;49.306;8.636;2023-04-25T05:05:18;99890.13;;;9.39;96.33
25944;BME280;13742;49.306;8.636;2023-04-25T05:06:18;99890.42;;;9.40;96.75
25944;BME280;13742;49.306;8.636;2023-04-25T05:07:18;99891.66;;;9.40;96.68
25944;BME280;13742;49.306;8.636;2023-04-25T05:08:18;99889.58;;;9.42;96.92
25944;BME280;13742;49.306;8.636;2023-04-25T05:09:19;99889.63;;;9.44;97.95
25944;BME280;13742;49.306;8.636;2023-04-25T05:10:18;99889.08;;;9.43;97.09
25944;BME280;13742;49.306;8.636;2023-04-25T05:11:19;99887.65;;;9.44;96.87
25944;BME280;13742;49.306;8.636;2023-04-25T05:12:18;99884.06;;;9.45;97.98
25944;BME280;13742;49.306;8.636;2023-04-25T05:13:18;99886.09;;;9.46;98.04
25944;BME280;13742;49.306;8.636;2023-04-25T05:14:18;99884.63;;;9.46;97.23
25944;BME280;13742;49.306;8.636;2023-04-25T05:15:18;99885.42;;;9.47;97.34
25944;BME280;13742;49.306;8.636;2023-04-25T05:16:18;99885.18;;;9.47;97.42
25944;BME280;13742;49.306;8.636;2023-04-25T05:17:18;99882.75;;;9.49;98.53
25944;BME280;13742;49.306;8.636;2023-04-25T05:18:18;99886.38;;;9.49;98.76
25944;BME280;13742;49.306;8.636;2023-04-25T05:19:18;99887.91;;;9.45;98.00
25944;BME280;13742;49.306;8.636;2023-04-25T05:20:18;99886.27;;;9.45;97.26